Time;durP1;ratioP1;P1;durP2;ratioP2;P2;SDS_P1;SDS_P2;PMS_P1;PMS_P2;Temp;Humidity;BMP_temperature;BMP_pressure;BME280_temperature;BME280_humidity;BME280_pressure;Samples;Min_cycle;Max_cycle;Signal;HPM_P1;HPM_P2
2023/03/17 00:01:18;;;;;;;3.00;1.40;;;;;;;13.09;100.00;99540.28;5044786;28;20036;-53
2023/03/17 00:03:45;;;;;;;1.55;1.23;;;;;;;13.18;100.00;99540.75;5044028;28;20017;-55
2023/03/17 00:06:28;;;;;;;4.10;1.52;;;;;;;13.23;100.00;99551.50;5041400;28;20431;-53
2023/03/17 00:08:55;;;;;;;2.95;0.90;;;;;;;13.25;100.00;99550.22;5049533;28;20060;-54
2023/03/17 00:11:20;;;;;;;5.47;0.77;;;;;;;13.20;100.00;99544.78;5041475;28;20016;-54
2023/03/17 00:13:46;;;;;;;3.17;1.00;;;;;;;13.20;100.00;99558.09;5047762;28;20089;-56
2023/03/17 00:16:16;;;;;;;1.80;0.98;;;;;;;13.19;100.00;99561.81;5045909;28;20039;-57
2023/03/17 00:18:43;;;;;;;2.92;0.85;;;;;;;13.26;100.00;99559.03;5046927;28;20036;-58
2023/03/17 00:21:13;;;;;;;0.57;0.43;;;;;;;13.28;100.00;99560.44;5047117;28;20040;-54
2023/03/17 00:23:40;;;;;;;7.75;0.47;;;;;;;13.38;100.00;99553.75;5044329;28;20085;-56
2023/03/17 00:26:05;;;;;;;1.30;0.45;;;;;;;13.35;100.00;99563.00;5052744;28;20059;-55
2023/03/17 00:28:31;;;;;;;1.17;0.55;;;;;;;13.49;100.00;99558.25;5049767;28;20024;-57
2023/03/17 00:30:59;;;;;;;1.95;0.65;;;;;;;13.60;100.00;99556.63;5043668;28;20040;-54
2023/03/17 00:33:28;;;;;;;0.98;0.57;;;;;;;13.55;100.00;99556.50;5045861;28;20374;-56
2023/03/17 00:35:55;;;;;;;2.25;0.32;;;;;;;13.59;100.00;99565.66;5050182;28;20174;-57
2023/03/17 00:38:23;;;;;;;3.95;0.40;;;;;;;13.49;100.00;99563.56;5040581;28;20052;-54
2023/03/17 00:40:49;;;;;;;0.70;0.28;;;;;;;13.37;100.00;99568.09;5042835;28;20108;-59
2023/03/17 00:43:15;;;;;;;1.73;1.63;;;;;;;13.30;100.00;99569.03;5047900;28;20379;-56
2023/03/17 00:45:42;;;;;;;0.32;0.13;;;;;;;13.37;100.00;99568.09;5051265;28;20039;-52
2023/03/17 00:48:16;;;;;;;2.38;0.35;;;;;;;13.36;100.00;99559.28;5037670;28;20116;-55
2023/03/17 00:50:43;;;;;;;1.10;0.10;;;;;;;13.39;100.00;99558.81;5043526;28;20029;-56
2023/03/17 00:53:14;;;;;;;0.55;0.10;;;;;;;13.39;100.00;99566.81;5042022;28;20418;-55
2023/03/17 00:55:41;;;;;;;0.55;0.05;;;;;;;13.36;100.00;99567.28;5046689;28;20036;-55
2023/03/17 00:58:17;;;;;;;4.20;1.45;;;;;;;13.48;100.00;99567.28;5036094;28;20036;-57
2023/03/17 01:00:43;;;;;;;1.08;0.55;;;;;;;13.54;100.00;99566.34;5039478;28;20439;-58
2023/03/17 01:03:11;;;;;;;5.50;0.20;;;;;;;13.56;100.00;99569.59;5040599;28;20034;-56
2023/03/17 01:05:37;;;;;;;0.20;0.00;;;;;;;13.52;100.00;99573.75;5048876;28;20032;-53
2023/03/17 01:08:03;;;;;;;0.10;0.10;;;;;;;13.50;100.00;99575.84;5042363;28;20445;-54
2023/03/17 01:10:29;;;;;;;2.42;0.50;;;;;;;13.46;100.00;99575.50;5043862;28;20044;-54
2023/03/17 01:12:56;;;;;;;0.75;0.00;;;;;;;13.42;100.00;99574.31;5049540;28;20029;-57
2023/03/17 01:15:24;;;;;;;0.15;0.00;;;;;;;13.47;100.00;99579.78;5047194;28;20083;-56
2023/03/17 01:17:50;;;;;;;0.08;0.00;;;;;;;13.52;100.00;99576.41;5043888;28;20092;-53
2023/03/17 01:20:26;;;;;;;0.45;0.10;;;;;;;13.44;100.00;99572.25;5047421;28;20057;-53
2023/03/17 01:22:52;;;;;;;2.78;0.20;;;;;;;13.40;100.00;99576.44;5050115;28;20508;-57
2023/03/17 01:25:18;;;;;;;0.65;0.52;;;;;;;13.40;100.00;99579.09;5050872;28;20029;-57
2023/03/17 01:27:45;;;;;;;2.20;0.10;;;;;;;13.42;100.00;99576.19;5051173;28;20020;-57
2023/03/17 01:30:26;;;;;;;0.40;0.40;;;;;;;13.43;100.00;99569.84;5045846;28;20029;-52
2023/03/17 01:32:51;;;;;;;0.03;0.00;;;;;;;13.45;100.00;99573.06;5049904;28;20501;-59
2023/03/17 01:35:18;;;;;;;0.10;0.10;;;;;;;13.36;100.00;99579.78;5050717;28;20068;-53
2023/03/17 01:37:45;;;;;;;0.90;0.00;;;;;;;13.39;100.00;99576.66;5046548;28;20030;-54
2023/03/17 01:40:16;;;;;;;1.30;0.10;;;;;;;13.33;100.00;99567.75;5050762;28;20029;-51
2023/03/17 01:42:47;;;;;;;0.45;0.00;;;;;;;13.34;100.00;99573.88;5047758;28;20055;-54
2023/03/17 01:46:08;;;;;;;2.08;0.85;;;;;;;13.45;100.00;99567.72;5046097;28;20048;-58
2023/03/17 01:48:37;;;;;;;1.13;0.05;;;;;;;13.39;100.00;99572.13;5017518;28;20064;-58
2023/03/17 01:51:05;;;;;;;0.70;0.00;;;;;;;13.44;100.00;99560.78;5042709;28;20045;-57
2023/03/17 01:53:32;;;;;;;1.10;0.10;;;;;;;13.34;100.00;99560.56;5054650;28;20039;-53
2023/03/17 01:55:58;;;;;;;0.00;0.00;;;;;;;13.33;100.00;99565.09;5053886;28;20097;-57
2023/03/17 01:58:25;;;;;;;0.00;0.00;;;;;;;13.34;100.00;99563.22;5042988;28;20033;-55
2023/03/17 02:00:50;;;;;;;0.03;0.00;;;;;;;13.30;100.00;99561.03;5045084;28;20064;-57
2023/03/17 02:03:16;;;;;;;1.55;0.10;;;;;;;13.35;100.00;99555.03;5052539;28;20060;-56
2023/03/17 02:05:43;;;;;;;0.63;0.08;;;;;;;13.33;100.00;99557.09;5053072;28;20068;-56
2023/03/17 02:08:15;;;;;;;3.53;0.03;;;;;;;13.28;100.00;99547.13;5051250;28;20108;-58
2023/03/17 02:10:41;;;;;;;0.80;0.00;;;;;;;13.32;100.00;99550.16;5049050;28;20065;-56
2023/03/17 02:13:10;;;;;;;0.73;0.00;;;;;;;13.36;100.00;99550.50;5056596;28;20035;-57
2023/03/17 02:15:41;;;;;;;0.15;0.08;;;;;;;13.33;100.00;99550.97;5041757;28;20037;-57
2023/03/17 02:18:08;;;;;;;4.00;0.20;;;;;;;13.36;100.00;99542.50;5045741;28;20025;-55
2023/03/17 02:20:34;;;;;;;0.05;0.00;;;;;;;13.39;100.00;99539.38;5047676;28;20045;-52
2023/03/17 02:23:00;;;;;;;2.10;1.10;;;;;;;13.38;100.00;99541.22;5044651;28;20064;-51
2023/03/17 02:25:29;;;;;;;0.80;0.22;;;;;;;13.38;100.00;99543.91;5049755;28;20057;-57
2023/03/17 02:28:00;;;;;;;0.63;0.00;;;;;;;13.31;100.00;99541.34;5050440;28;20047;-51
2023/03/17 02:30:27;;;;;;;0.25;0.00;;;;;;;13.16;100.00;99532.16;5044880;28;20758;-56
2023/03/17 02:32:52;;;;;;;1.33;0.08;;;;;;;13.07;100.00;99531.72;5047705;28;20429;-58
2023/03/17 02:35:19;;;;;;;0.28;0.00;;;;;;;13.10;100.00;99534.72;5046219;28;20033;-54
2023/03/17 02:37:45;;;;;;;4.57;0.10;;;;;;;13.14;100.00;99542.22;5048013;28;20155;-58
2023/03/17 02:40:12;;;;;;;0.00;0.00;;;;;;;13.14;100.00;99540.41;5042435;28;20382;-55
2023/03/17 02:42:38;;;;;;;3.13;0.10;;;;;;;13.11;100.00;99535.50;5050079;28;20033;-54
2023/03/17 02:45:05;;;;;;;5.88;0.20;;;;;;;13.03;100.00;99528.69;5046918;28;20116;-57
2023/03/17 02:47:31;;;;;;;1.15;0.30;;;;;;;12.93;100.00;99528.44;5048593;28;20040;-55
2023/03/17 02:49:57;;;;;;;0.10;0.00;;;;;;;12.83;100.00;99544.97;5046578;28;20102;-55
2023/03/17 02:52:22;;;;;;;0.08;0.00;;;;;;;12.77;100.00;99537.91;5050910;28;20024;-58
2023/03/17 02:54:47;;;;;;;2.25;0.05;;;;;;;12.78;100.00;99552.84;5048578;28;20063;-54
2023/03/17 02:57:13;;;;;;;0.68;0.00;;;;;;;12.78;100.00;99549.38;5042734;28;20116;-53
2023/03/17 02:59:38;;;;;;;0.20;0.13;;;;;;;12.88;100.00;99547.78;5042500;28;20074;-58
2023/03/17 03:02:04;;;;;;;0.35;0.15;;;;;;;12.93;100.00;99538.28;5047712;28;20056;-54
2023/03/17 03:04:30;;;;;;;4.15;0.00;;;;;;;13.05;100.00;99536.44;5043103;28;20143;-55
2023/03/17 03:06:56;;;;;;;0.90;0.80;;;;;;;13.06;100.00;99536.22;5045880;28;20152;-58
2023/03/17 03:09:22;;;;;;;1.17;0.00;;;;;;;13.10;100.00;99537.38;5049073;28;20425;-57
2023/03/17 03:11:47;;;;;;;0.88;0.10;;;;;;;13.14;100.00;99528.91;5046257;28;20377;-53
2023/03/17 03:14:13;;;;;;;0.50;0.00;;;;;;;13.14;100.00;99524.44;5045457;28;20072;-58
2023/03/17 03:16:38;;;;;;;2.67;0.25;;;;;;;13.14;100.00;99507.63;5048507;28;20075;-55
2023/03/17 03:19:05;;;;;;;0.98;0.10;;;;;;;13.15;100.00;99507.41;5038869;28;20053;-52
2023/03/17 03:21:31;;;;;;;0.88;0.00;;;;;;;13.12;100.00;99510.53;5043633;28;21170;-57
2023/03/17 03:23:56;;;;;;;1.92;0.08;;;;;;;13.14;100.00;99510.28;5048470;28;20037;-56
2023/03/17 03:26:22;;;;;;;0.17;0.00;;;;;;;13.14;100.00;99511.13;5050005;28;20032;-58
2023/03/17 03:28:47;;;;;;;2.03;1.10;;;;;;;13.14;100.00;99511.13;5051090;28;20037;-57
2023/03/17 03:31:13;;;;;;;2.40;0.20;;;;;;;13.04;100.00;99511.69;5041325;28;20029;-52
2023/03/17 03:33:39;;;;;;;2.83;0.00;;;;;;;12.93;100.00;99509.00;5050151;28;20033;-54
2023/03/17 03:36:06;;;;;;;1.77;0.40;;;;;;;12.79;100.00;99505.75;5045237;28;20052;-54
2023/03/17 03:38:32;;;;;;;3.97;0.40;;;;;;;12.73;100.00;99512.81;5039203;28;20021;-53
2023/03/17 03:40:57;;;;;;;1.55;0.28;;;;;;;12.69;100.00;99513.50;5045023;28;20049;-58
2023/03/17 03:43:22;;;;;;;1.80;0.20;;;;;;;12.71;100.00;99514.06;5042964;28;20462;-58
2023/03/17 03:45:48;;;;;;;0.88;0.00;;;;;;;12.65;100.00;99521.94;5053292;28;20032;-55
2023/03/17 03:48:13;;;;;;;1.05;0.30;;;;;;;12.69;100.00;99511.63;5048915;28;20025;-58
2023/03/17 03:50:38;;;;;;;2.40;0.20;;;;;;;12.71;100.00;99517.53;5038185;28;20474;-53
2023/03/17 03:53:04;;;;;;;3.22;0.35;;;;;;;12.72;100.00;99519.16;5045990;28;20410;-56
2023/03/17 03:55:29;;;;;;;2.40;0.10;;;;;;;12.74;100.00;99525.06;5052544;28;20025;-59
2023/03/17 03:57:55;;;;;;;2.05;0.98;;;;;;;12.81;100.00;99520.44;5050478;28;20111;-58
2023/03/17 04:00:20;;;;;;;0.57;0.57;;;;;;;12.87;100.00;99521.38;5040764;28;20369;-56
2023/03/17 04:02:46;;;;;;;2.65;1.00;;;;;;;12.88;100.00;99521.16;5042154;28;20129;-58
2023/03/17 04:05:14;;;;;;;3.90;0.30;;;;;;;12.80;100.00;99516.19;5051439;28;20031;-58
2023/03/17 04:07:40;;;;;;;2.63;0.10;;;;;;;12.81;100.00;99509.81;5038423;28;20029;-52
2023/03/17 04:10:07;;;;;;;3.00;0.90;;;;;;;12.84;100.00;99511.22;5039863;28;20043;-56
2023/03/17 04:12:33;;;;;;;0.35;0.35;;;;;;;12.87;100.00;99508.88;5052167;28;20033;-58
2023/03/17 04:14:58;;;;;;;1.13;0.32;;;;;;;12.86;100.00;99511.78;5046297;28;20107;-58
2023/03/17 04:17:24;;;;;;;0.35;0.22;;;;;;;12.93;100.00;99511.66;5047322;28;20021;-52
2023/03/17 04:19:50;;;;;;;0.15;0.00;;;;;;;12.96;100.00;99511.19;5045474;28;20498;-57
2023/03/17 04:22:15;;;;;;;4.78;0.20;;;;;;;12.99;100.00;99502.78;5046706;28;20534;-58
2023/03/17 04:24:40;;;;;;;1.55;0.03;;;;;;;12.93;100.00;99507.16;5058597;28;20025;-54
2023/03/17 04:27:06;;;;;;;2.30;0.10;;;;;;;12.90;100.00;99501.50;5045349;28;20110;-54
2023/03/17 04:29:32;;;;;;;1.17;0.38;;;;;;;12.88;100.00;99496.38;5040976;28;20040;-55
2023/03/17 04:31:57;;;;;;;1.90;0.10;;;;;;;12.83;100.00;99507.75;5052454;28;20039;-52
2023/03/17 04:34:23;;;;;;;2.75;0.10;;;;;;;12.95;100.00;99504.28;5044147;28;20064;-58
2023/03/17 04:36:48;;;;;;;1.90;0.60;;;;;;;12.97;100.00;99507.53;5044962;28;20503;-57
2023/03/17 04:39:14;;;;;;;2.45;0.10;;;;;;;12.98;100.00;99514.44;5042102;28;20025;-56
2023/03/17 04:41:40;;;;;;;0.85;0.25;;;;;;;13.01;100.00;99519.31;5052986;28;20031;-58
2023/03/17 04:44:06;;;;;;;8.82;0.30;;;;;;;13.02;100.00;99523.59;5045265;28;20033;-57
2023/03/17 04:46:33;;;;;;;3.58;0.20;;;;;;;13.07;100.00;99518.41;5046172;28;20494;-58
2023/03/17 04:48:58;;;;;;;7.57;0.75;;;;;;;13.07;100.00;99519.22;5037954;28;20069;-57
2023/03/17 04:51:23;;;;;;;6.65;0.28;;;;;;;13.07;100.00;99521.06;5041552;28;20039;-55
2023/03/17 04:53:49;;;;;;;0.32;0.00;;;;;;;13.15;100.00;99515.41;5048414;28;20024;-57
2023/03/17 04:56:14;;;;;;;1.38;0.17;;;;;;;13.01;100.00;99521.97;5045190;28;20078;-56
2023/03/17 04:58:40;;;;;;;1.85;0.10;;;;;;;12.90;100.00;99528.91;5040934;28;20035;-55
2023/03/17 05:01:06;;;;;;;0.68;0.30;;;;;;;12.91;100.00;99519.91;5040767;28;20032;-57
2023/03/17 05:03:32;;;;;;;3.10;0.20;;;;;;;12.86;100.00;99515.25;5040058;28;20072;-52
2023/03/17 05:05:58;;;;;;;0.95;0.00;;;;;;;12.78;100.00;99530.75;5050565;28;20133;-51
2023/03/17 05:08:25;;;;;;;0.93;0.30;;;;;;;12.86;100.00;99523.25;5043370;28;20032;-56
2023/03/17 05:10:50;;;;;;;0.40;0.15;;;;;;;12.93;100.00;99527.63;5043857;28;20040;-58
2023/03/17 05:13:17;;;;;;;0.68;0.40;;;;;;;12.99;100.00;99534.72;5060126;28;20028;-55
2023/03/17 05:15:46;;;;;;;1.10;0.00;;;;;;;12.97;100.00;99539.44;5048438;28;20108;-57
2023/03/17 05:18:11;;;;;;;1.45;0.10;;;;;;;13.01;100.00;99528.13;5050746;28;20037;-58
2023/03/17 05:20:37;;;;;;;1.45;0.10;;;;;;;13.07;100.00;99529.03;5044361;28;20041;-58
2023/03/17 05:23:02;;;;;;;0.93;0.20;;;;;;;13.04;100.00;99534.84;5046734;28;20476;-57
2023/03/17 05:25:27;;;;;;;2.55;0.25;;;;;;;13.05;100.00;99531.94;5039304;28;20029;-54
2023/03/17 05:27:53;;;;;;;1.20;0.10;;;;;;;12.96;100.00;99538.66;5047539;28;20497;-54
2023/03/17 05:30:18;;;;;;;1.02;0.22;;;;;;;12.97;100.00;99536.78;5045313;28;20041;-56
2023/03/17 05:32:44;;;;;;;4.13;0.45;;;;;;;13.00;100.00;99537.13;5046247;28;20091;-58
2023/03/17 05:35:10;;;;;;;2.47;0.82;;;;;;;13.11;100.00;99538.19;5044464;28;20021;-58
2023/03/17 05:37:35;;;;;;;3.00;1.08;;;;;;;13.08;100.00;99534.13;5046576;28;20037;-58
2023/03/17 05:40:01;;;;;;;2.95;0.30;;;;;;;13.12;100.00;99534.50;5043436;28;20087;-58
2023/03/17 05:42:27;;;;;;;0.55;0.20;;;;;;;13.14;100.00;99535.06;5052927;28;20111;-54
2023/03/17 05:44:52;;;;;;;0.38;0.20;;;;;;;13.24;100.00;99524.66;5049153;28;20104;-55
2023/03/17 05:47:17;;;;;;;0.20;0.20;;;;;;;13.21;100.00;99538.41;5045127;28;20029;-58
2023/03/17 05:49:43;;;;;;;2.28;0.82;;;;;;;13.16;100.00;99538.28;5048068;28;20029;-57
2023/03/17 05:52:08;;;;;;;1.58;0.40;;;;;;;13.14;100.00;99531.59;5045554;28;20032;-54
2023/03/17 05:54:34;;;;;;;4.18;0.80;;;;;;;13.06;100.00;99533.56;5043495;28;20124;-58
2023/03/17 05:56:59;;;;;;;1.20;0.38;;;;;;;12.98;100.00;99530.41;5046758;28;20037;-55
2023/03/17 05:59:25;;;;;;;1.45;0.57;;;;;;;12.90;100.00;99531.56;5055156;28;20382;-58
2023/03/17 06:01:50;;;;;;;1.98;0.82;;;;;;;12.91;100.00;99532.38;5052026;28;20486;-56
2023/03/17 06:04:16;;;;;;;3.38;0.55;;;;;;;12.91;100.00;99540.34;5048320;28;20526;-52
2023/03/17 06:06:41;;;;;;;5.63;1.23;;;;;;;12.91;100.00;99537.69;5046072;28;20021;-57
2023/03/17 06:09:07;;;;;;;3.25;0.90;;;;;;;12.81;100.00;99541.72;5041632;28;20037;-58
2023/03/17 06:11:32;;;;;;;1.35;0.88;;;;;;;12.78;100.00;99544.84;5048707;28;20389;-54
2023/03/17 06:13:58;;;;;;;2.60;0.90;;;;;;;12.83;100.00;99544.97;5052422;28;20107;-52
2023/03/17 06:16:23;;;;;;;6.93;0.40;;;;;;;12.75;100.00;99534.69;5047063;28;20052;-57
2023/03/17 06:18:48;;;;;;;3.35;0.70;;;;;;;12.72;100.00;99537.78;5047809;28;20640;-56
2023/03/17 06:21:14;;;;;;;2.35;0.70;;;;;;;12.69;100.00;99548.06;5046711;28;20512;-58
2023/03/17 06:23:40;;;;;;;1.75;0.55;;;;;;;12.70;100.00;99550.50;5047275;28;20282;-55
2023/03/17 06:26:05;;;;;;;2.80;0.45;;;;;;;12.78;100.00;99560.81;5052494;28;20057;-53
2023/03/17 06:28:31;;;;;;;0.75;0.52;;;;;;;12.78;100.00;99555.50;5050548;28;20028;-56
2023/03/17 06:30:57;;;;;;;2.88;0.43;;;;;;;12.85;100.00;99552.72;5044543;28;20494;-53
2023/03/17 06:33:22;;;;;;;2.20;0.68;;;;;;;12.88;100.00;99553.09;5051433;28;20083;-57
2023/03/17 06:35:48;;;;;;;1.17;0.70;;;;;;;12.88;100.00;99541.63;5044298;28;20429;-58
2023/03/17 06:38:13;;;;;;;4.63;1.05;;;;;;;12.87;100.00;99548.78;5045872;28;20462;-58
2023/03/17 06:40:39;;;;;;;1.35;0.85;;;;;;;12.86;100.00;99555.16;5045700;28;20501;-56
2023/03/17 06:43:04;;;;;;;1.10;0.25;;;;;;;12.78;100.00;99552.84;5054774;28;20024;-56
2023/03/17 06:45:31;;;;;;;1.20;0.22;;;;;;;12.78;100.00;99552.84;5048374;28;20475;-53
2023/03/17 06:47:57;;;;;;;1.98;0.28;;;;;;;12.79;100.00;99557.09;5044378;28;20111;-58
2023/03/17 06:50:22;;;;;;;1.73;0.20;;;;;;;12.89;100.00;99567.19;5045202;28;20045;-53
2023/03/17 06:52:47;;;;;;;2.65;1.48;;;;;;;12.82;100.00;99561.97;5044918;28;20043;-55
2023/03/17 06:55:13;;;;;;;3.08;0.57;;;;;;;12.79;100.00;99549.13;5046429;28;20371;-57
2023/03/17 06:57:39;;;;;;;3.05;0.28;;;;;;;12.81;100.00;99552.38;5045051;28;21249;-58
2023/03/17 07:00:05;;;;;;;2.72;0.30;;;;;;;12.77;100.00;99555.72;5045418;28;20033;-58
2023/03/17 07:02:32;;;;;;;4.47;0.98;;;;;;;12.78;100.00;99536.88;5043252;28;20313;-51
2023/03/17 07:04:58;;;;;;;1.02;0.70;;;;;;;12.81;100.00;99531.09;5045418;28;20483;-58
2023/03/17 07:07:24;;;;;;;8.38;1.13;;;;;;;12.84;100.00;99527.97;5043561;28;20036;-58
2023/03/17 07:09:51;;;;;;;2.05;0.60;;;;;;;12.93;100.00;99524.97;5044222;28;20030;-58
2023/03/17 07:12:16;;;;;;;3.08;1.02;;;;;;;12.99;100.00;99518.75;5043542;28;20159;-56
2023/03/17 07:14:42;;;;;;;1.88;0.90;;;;;;;12.96;100.00;99528.00;5046743;28;20099;-53
2023/03/17 07:17:11;;;;;;;1.15;0.40;;;;;;;12.94;100.00;99530.06;5044117;28;20029;-58
2023/03/17 07:19:37;;;;;;;13.95;1.42;;;;;;;12.94;100.00;99530.06;5042410;28;20117;-58
2023/03/17 07:22:02;;;;;;;0.65;0.52;;;;;;;12.96;100.00;99554.59;5044425;28;20032;-54
2023/03/17 07:24:27;;;;;;;1.73;0.55;;;;;;;13.10;100.00;99549.88;5042205;28;20385;-58
2023/03/17 07:26:53;;;;;;;3.00;0.40;;;;;;;13.16;100.00;99548.13;5040933;28;20341;-58
2023/03/17 07:29:18;;;;;;;2.15;0.75;;;;;;;13.22;100.00;99541.91;5044459;28;20033;-58
2023/03/17 07:31:44;;;;;;;2.13;0.50;;;;;;;13.30;100.00;99549.56;5039305;28;20104;-58
2023/03/17 07:34:10;;;;;;;2.60;0.15;;;;;;;13.37;100.00;99546.78;5045745;28;20421;-58
2023/03/17 07:36:36;;;;;;;0.90;0.52;;;;;;;13.41;100.00;99553.28;5046316;28;20040;-58
2023/03/17 07:39:02;;;;;;;1.25;0.45;;;;;;;13.37;100.00;99552.09;5046117;28;20515;-57
2023/03/17 07:41:28;;;;;;;5.75;0.43;;;;;;;13.41;100.00;99558.59;5041234;28;20082;-57
2023/03/17 07:43:55;;;;;;;1.45;0.30;;;;;;;13.48;100.00;99567.28;5045477;28;20025;-58
2023/03/17 07:46:20;;;;;;;3.35;0.17;;;;;;;13.44;100.00;99574.91;5040337;28;20462;-57
2023/03/17 07:48:46;;;;;;;0.80;0.22;;;;;;;13.46;100.00;99566.69;5044752;28;20057;-57
2023/03/17 07:51:15;;;;;;;4.20;0.50;;;;;;;13.50;100.00;99567.84;5041263;28;20497;-54
2023/03/17 07:53:40;;;;;;;2.50;1.42;;;;;;;13.44;100.00;99561.59;5050170;28;20430;-59
2023/03/17 07:56:07;;;;;;;0.85;0.75;;;;;;;13.48;100.00;99564.63;5043731;28;20110;-58
2023/03/17 07:58:33;;;;;;;1.25;0.70;;;;;;;13.47;100.00;99568.31;5047300;28;20102;-58
2023/03/17 08:00:58;;;;;;;2.22;0.63;;;;;;;13.47;100.00;99573.63;5043875;28;20034;-56
2023/03/17 08:03:24;;;;;;;6.32;0.80;;;;;;;13.48;100.00;99583.28;5048672;28;20029;-55
2023/03/17 08:05:56;;;;;;;2.83;0.80;;;;;;;13.53;100.00;99583.38;5048991;28;20029;-54
2023/03/17 08:08:23;;;;;;;1.73;1.45;;;;;;;13.55;100.00;99573.28;5042962;28;20083;-58
2023/03/17 08:10:49;;;;;;;1.38;0.17;;;;;;;13.60;100.00;99576.06;5049143;28;20116;-57
2023/03/17 08:13:15;;;;;;;2.10;0.55;;;;;;;13.70;100.00;99580.81;5041887;28;20104;-58
2023/03/17 08:15:41;;;;;;;1.95;1.02;;;;;;;13.80;100.00;99589.03;5046678;28;20120;-57
2023/03/17 08:18:06;;;;;;;1.00;0.28;;;;;;;13.84;100.00;99594.72;5049950;28;20034;-58
2023/03/17 08:20:33;;;;;;;5.05;0.57;;;;;;;13.88;100.00;99598.50;5035812;28;20136;-58
2023/03/17 08:22:58;;;;;;;1.17;0.47;;;;;;;13.94;100.00;99592.28;5042755;28;20032;-56
2023/03/17 08:25:24;;;;;;;1.80;0.50;;;;;;;14.07;100.00;99594.66;5039281;28;20037;-52
2023/03/17 08:27:50;;;;;;;1.20;0.32;;;;;;;14.06;100.00;99593.03;5053817;28;20390;-58
2023/03/17 08:30:16;;;;;;;1.90;0.60;;;;;;;14.08;100.00;99588.28;5036330;28;20090;-57
2023/03/17 08:32:42;;;;;;;1.20;0.43;;;;;;;14.26;100.00;99594.50;5043508;28;20331;-58
2023/03/17 08:35:17;;;;;;;1.67;0.50;;;;;;;14.39;100.00;99586.22;5049521;28;20031;-59
2023/03/17 08:37:43;;;;;;;2.67;1.30;;;;;;;14.59;100.00;99580.50;5051850;28;20029;-58
2023/03/17 08:40:15;;;;;;;5.57;1.15;;;;;;;14.58;100.00;99582.31;5044716;28;20056;-57
2023/03/17 08:42:45;;;;;;;3.90;1.50;;;;;;;14.65;100.00;99576.06;5041507;28;20386;-58
2023/03/17 08:45:12;;;;;;;4.28;1.63;;;;;;;14.72;100.00;99576.72;5039442;28;20044;-58
2023/03/17 08:47:38;;;;;;;4.30;1.23;;;;;;;14.63;100.00;99572.81;5050372;28;20079;-56
2023/03/17 08:50:07;;;;;;;3.55;1.00;;;;;;;14.61;100.00;99583.72;5044328;28;20060;-54
2023/03/17 08:52:35;;;;;;;3.88;1.58;;;;;;;14.63;100.00;99578.94;5048533;28;20123;-57
2023/03/17 08:55:00;;;;;;;3.05;0.70;;;;;;;14.67;100.00;99581.97;5049393;28;20037;-57
2023/03/17 08:57:26;;;;;;;4.10;1.98;;;;;;;14.65;100.00;99581.38;5049589;28;20036;-56
2023/03/17 08:59:52;;;;;;;2.03;1.23;;;;;;;14.49;100.00;99588.28;5047837;28;20063;-58
2023/03/17 09:02:18;;;;;;;2.70;0.90;;;;;;;14.29;100.00;99588.69;5047570;28;20064;-58
2023/03/17 09:04:43;;;;;;;3.72;1.20;;;;;;;14.28;100.00;99587.09;5056475;28;20029;-56
2023/03/17 09:07:11;;;;;;;2.17;1.98;;;;;;;14.23;100.00;99589.66;5055675;28;20028;-58
2023/03/17 09:09:37;;;;;;;6.20;1.77;;;;;;;14.08;100.00;99593.59;5045523;28;20021;-58
2023/03/17 09:12:05;;;;;;;1.58;1.48;;;;;;;14.06;100.00;99582.38;5043630;28;20039;-52
2023/03/17 09:14:31;;;;;;;2.03;0.98;;;;;;;14.07;100.00;99585.84;5050450;28;20037;-55
2023/03/17 09:16:57;;;;;;;6.18;1.40;;;;;;;14.08;100.00;99587.47;5053558;28;20033;-58
2023/03/17 09:19:22;;;;;;;6.35;1.65;;;;;;;13.96;100.00;99580.31;5039048;28;20072;-55
2023/03/17 09:21:49;;;;;;;2.42;1.55;;;;;;;13.99;100.00;99595.00;5045044;28;20029;-58
2023/03/17 09:24:14;;;;;;;8.20;1.67;;;;;;;13.87;100.00;99597.72;5043465;28;20425;-53
2023/03/17 09:26:40;;;;;;;3.35;2.30;;;;;;;13.87;100.00;99596.91;5045666;28;20099;-58
2023/03/17 09:29:06;;;;;;;3.13;2.00;;;;;;;13.86;100.00;99595.25;5041449;28;20043;-58
2023/03/17 09:31:32;;;;;;;4.57;1.40;;;;;;;13.75;100.00;99604.91;5039365;28;20021;-58
2023/03/17 09:33:58;;;;;;;3.58;1.88;;;;;;;13.72;100.00;99598.19;5047511;28;20033;-58
2023/03/17 09:36:24;;;;;;;5.97;2.28;;;;;;;13.76;100.00;99595.88;5050056;28;20044;-55
2023/03/17 09:38:50;;;;;;;3.30;2.15;;;;;;;13.71;100.00;99604.56;5049787;28;20033;-55
2023/03/17 09:41:18;;;;;;;6.25;2.33;;;;;;;13.82;100.00;99602.13;5044127;28;20452;-56
2023/03/17 09:44:11;;;;;;;8.02;5.95;;;;;;;13.80;100.00;99606.88;5061794;28;20021;-53
2023/03/17 09:46:57;;;;;;;6.55;2.63;;;;;;;13.89;100.00;99602.81;5048673;28;20060;-56
2023/03/17 09:49:44;;;;;;;7.13;2.75;;;;;;;13.88;100.00;99611.84;5047257;28;20535;-57
2023/03/17 09:52:17;;;;;;;8.68;2.88;;;;;;;13.87;100.00;99607.56;5050463;28;20278;-58
2023/03/17 09:54:45;;;;;;;3.33;2.45;;;;;;;13.95;100.00;99604.53;5047486;28;20025;-57
2023/03/17 09:57:36;;;;;;;3.40;2.22;;;;;;;14.07;100.00;99602.66;5049088;28;20032;-58
2023/03/17 10:00:15;;;;;;;6.43;3.15;;;;;;;14.11;100.00;99603.00;5052422;28;20377;-58
2023/03/17 10:02:42;;;;;;;5.15;2.83;;;;;;;14.15;100.00;99606.81;5049359;28;20061;-54
2023/03/17 10:05:21;;;;;;;2.35;1.70;;;;;;;14.10;100.00;99612.84;5051612;28;20377;-58
2023/03/17 10:08:08;;;;;;;2.97;1.70;;;;;;;14.06;100.00;99609.03;5048539;28;20482;-56
2023/03/17 10:10:56;;;;;;;2.72;1.17;;;;;;;14.06;100.00;99610.88;5052059;28;20024;-56
2023/03/17 10:13:27;;;;;;;2.78;1.98;;;;;;;14.07;100.00;99617.81;5054817;28;20099;-59
2023/03/17 10:16:11;;;;;;;6.13;2.10;;;;;;;14.07;100.00;99613.31;5041813;28;20037;-54
2023/03/17 10:18:49;;;;;;;3.65;2.38;;;;;;;14.05;100.00;99610.06;5041754;28;20544;-52
2023/03/17 10:21:21;;;;;;;5.80;1.83;;;;;;;14.05;100.00;99611.94;5047699;28;20028;-58
2023/03/17 10:23:47;;;;;;;;;;;;;;;14.10;100.00;99607.53;5047818;28;20032;-57
2023/03/17 10:26:31;;;;;;;2.08;1.25;;;;;;;14.14;100.00;99603.31;5042632;28;19921;-53
2023/03/17 10:28:58;;;;;;;8.68;1.50;;;;;;;14.11;100.00;99608.31;5047964;28;20397;-57
2023/03/17 10:31:34;;;;;;;3.30;1.40;;;;;;;14.12;100.00;99605.44;5054426;28;20333;-57
2023/03/17 10:34:18;;;;;;;8.45;2.53;;;;;;;14.23;100.00;99606.44;5045585;28;20060;-57
2023/03/17 10:36:52;;;;;;;2.67;2.47;;;;;;;14.24;100.00;99601.91;5046958;28;20047;-57
2023/03/17 10:39:20;;;;;;;4.00;2.53;;;;;;;14.27;100.00;99602.25;5046376;28;20033;-54
2023/03/17 10:42:14;;;;;;;3.83;2.00;;;;;;;14.32;100.00;99613.00;5048421;28;20397;-56
2023/03/17 10:45:00;;;;;;;2.80;2.17;;;;;;;14.32;100.00;99609.53;5048686;28;20020;-57
2023/03/17 10:47:31;;;;;;;4.88;4.30;;;;;;;14.31;100.00;99602.59;5047798;28;20075;-57
2023/03/17 10:49:59;;;;;;;;;;;;;;;14.54;100.00;99599.88;5046739;28;20695;-58
2023/03/17 10:52:28;;;;;;;4.25;3.78;;;;;;;14.42;100.00;99596.41;5043256;28;20411;-57
2023/03/17 10:54:59;;;;;;;4.43;3.45;;;;;;;14.31;100.00;99602.59;5048864;28;20064;-52
2023/03/17 10:57:25;;;;;;;4.43;4.03;;;;;;;14.30;100.00;99598.28;5048639;28;20036;-57
2023/03/17 10:59:53;;;;;;;2.92;2.60;;;;;;;13.68;100.00;99613.03;5049199;28;20029;-57
2023/03/17 11:02:28;;;;;;;7.88;4.20;;;;;;;13.85;100.00;99628.28;5047258;28;20177;-56
2023/03/17 11:05:16;;;;;;;6.03;3.90;;;;;;;13.93;100.00;99627.94;5044801;28;20025;-57
2023/03/17 11:07:42;;;;;;;2.45;2.17;;;;;;;14.06;100.00;99625.00;5048619;28;20049;-58
2023/03/17 11:10:18;;;;;;;4.55;2.42;;;;;;;14.11;100.00;99619.78;5045178;28;20033;-58
2023/03/17 11:12:43;;;;;;;3.10;1.75;;;;;;;14.08;100.00;99614.94;5046670;28;20021;-53
2023/03/17 11:15:18;;;;;;;3.50;1.83;;;;;;;14.14;100.00;99613.97;5046735;28;20432;-59
2023/03/17 11:17:59;;;;;;;2.00;0.82;;;;;;;14.19;100.00;99616.75;5052329;28;20038;-58
2023/03/17 11:20:33;;;;;;;3.47;1.55;;;;;;;14.17;100.00;99604.72;5044867;28;20453;-57
2023/03/17 11:23:14;;;;;;;4.03;1.70;;;;;;;14.23;100.00;99608.31;5045727;28;20036;-57
2023/03/17 11:25:43;;;;;;;3.58;1.02;;;;;;;14.26;100.00;99610.50;5044925;28;20029;-58
2023/03/17 11:28:23;;;;;;;3.22;1.13;;;;;;;14.26;100.00;99605.97;5049373;28;21721;-58
2023/03/17 11:30:52;;;;;;;3.65;1.48;;;;;;;14.21;100.00;99597.88;5046124;28;20093;-53